createdAt,value
2019-02-06T00:02:18.489Z,42.60
2019-02-06T00:04:47.773Z,42.60
2019-02-06T00:07:39.363Z,42.60
2019-02-06T00:10:08.419Z,42.50
2019-02-06T00:12:54.552Z,42.40
2019-02-06T01:59:02.825Z,42.00
2019-02-06T02:01:36.520Z,41.90
2019-02-06T02:04:08.915Z,42.50
2019-02-06T02:06:50.843Z,41.90
2019-02-06T02:09:24.965Z,41.80
2019-02-06T02:11:54.039Z,41.80
2019-02-06T02:14:23.439Z,41.90
2019-02-06T02:16:53.483Z,41.80
2019-02-06T02:19:23.424Z,41.90
2019-02-06T02:21:53.910Z,41.70
2019-02-06T02:24:31.364Z,42.50
2019-02-06T02:27:03.023Z,41.80
2019-02-06T02:29:39.029Z,41.80
2019-02-06T02:32:08.172Z,41.80
2019-02-06T02:34:39.456Z,41.80
2019-02-06T02:37:29.169Z,41.90
2019-02-06T02:40:01.628Z,41.90
2019-02-06T02:42:36.634Z,42.00
2019-02-06T02:45:07.716Z,42.00
2019-02-06T02:47:39.412Z,41.90
2019-02-06T02:50:38.677Z,42.00
2019-02-06T02:53:22.260Z,42.00
2019-02-06T02:56:01.757Z,41.90
2019-02-06T02:58:29.472Z,42.00
2019-02-06T03:01:20.071Z,42.10
2019-02-06T03:04:11.101Z,42.00
2019-02-06T03:06:40.335Z,42.00
2019-02-06T03:09:21.031Z,42.00
2019-02-06T03:12:00.056Z,42.00
2019-02-06T03:14:30.775Z,42.00
2019-02-06T03:17:04.071Z,42.00
2019-02-06T03:19:32.769Z,42.00
2019-02-06T03:22:05.515Z,42.00
2019-02-06T03:25:09.834Z,42.00
2019-02-06T03:27:44.832Z,42.00
2019-02-06T03:30:21.864Z,41.90
2019-02-06T03:32:53.465Z,41.90
2019-02-06T03:35:22.476Z,41.90
2019-02-06T03:37:51.800Z,42.00
2019-02-06T03:40:20.627Z,42.00
2019-02-06T03:42:49.523Z,42.00
2019-02-06T03:45:23.400Z,42.00
2019-02-06T03:48:10.290Z,42.00
2019-02-06T03:54:20.683Z,42.00
2019-02-06T03:56:50.902Z,41.90
2019-02-06T03:59:33.292Z,42.00
2019-02-06T04:02:10.984Z,42.00
2019-02-06T04:04:39.950Z,41.90
2019-02-06T04:07:29.350Z,42.10
2019-02-06T04:10:02.072Z,42.30
2019-02-06T04:15:42.232Z,42.80
2019-02-06T04:18:20.929Z,43.00
2019-02-06T04:21:19.075Z,42.90
2019-02-06T04:23:53.623Z,43.00
2019-02-06T04:26:25.288Z,42.90
2019-02-06T04:29:05.961Z,42.80
2019-02-06T04:31:58.647Z,42.50
2019-02-06T04:34:56.897Z,42.30
2019-02-06T04:38:02.210Z,41.90
2019-02-06T04:40:40.003Z,41.70
2019-02-06T04:43:30.060Z,41.50
2019-02-06T04:46:00.501Z,41.30
2019-02-06T04:48:53.127Z,41.10
2019-02-06T04:51:44.155Z,41.00
2019-02-06T04:54:30.594Z,40.80
2019-02-06T04:57:02.251Z,40.70
2019-02-06T04:59:36.115Z,40.90
2019-02-06T05:02:05.590Z,40.90
2019-02-06T05:04:35.343Z,41.00
2019-02-06T05:07:18.344Z,41.10
2019-02-06T05:09:45.067Z,41.00
2019-02-06T05:12:33.469Z,41.00
2019-02-06T05:15:09.759Z,41.00
2019-02-06T07:03:30.619Z,41.90
2019-02-06T07:06:04.100Z,41.80
2019-02-06T07:11:34.093Z,41.70
2019-02-06T07:14:04.580Z,41.70
2019-02-06T07:16:35.983Z,41.80
2019-02-06T07:19:05.184Z,41.70
2019-02-06T07:21:34.206Z,41.80
2019-02-06T07:24:08.282Z,41.70
2019-02-06T07:26:47.207Z,41.70
2019-02-06T07:29:16.488Z,41.70
2019-02-06T07:31:49.880Z,41.80
2019-02-06T07:34:21.230Z,41.70
2019-02-06T07:36:50.689Z,41.80
2019-02-06T07:39:21.169Z,41.80
2019-02-06T07:41:50.819Z,41.70
2019-02-06T07:44:21.185Z,41.70
2019-02-06T07:46:50.783Z,41.70
2019-02-06T07:49:35.190Z,41.70
2019-02-06T07:52:04.233Z,41.60
2019-02-06T07:57:28.183Z,41.60
2019-02-06T07:59:57.116Z,41.60
2019-02-06T08:02:30.412Z,41.70
2019-02-06T08:05:05.622Z,41.60
2019-02-06T08:07:55.214Z,41.70
2019-02-06T08:10:40.051Z,41.80
2019-02-06T08:13:14.479Z,42.10
2019-02-06T08:15:44.962Z,42.30
2019-02-06T08:18:15.855Z,42.40
2019-02-06T08:20:51.223Z,42.70
2019-02-06T08:23:22.082Z,42.90
2019-02-06T08:25:52.311Z,43.10
2019-02-06T08:28:22.657Z,43.20
2019-02-06T08:30:52.562Z,43.20
2019-02-06T08:33:22.109Z,43.00
2019-02-06T08:35:56.393Z,42.80
2019-02-06T08:38:24.628Z,42.60
2019-02-06T08:40:53.622Z,42.40
2019-02-06T08:43:23.223Z,42.40
2019-02-06T08:49:01.099Z,42.20
2019-02-06T08:51:38.803Z,42.10
2019-02-06T08:54:13.307Z,41.90
2019-02-06T08:56:44.899Z,41.80
2019-02-06T08:59:29.540Z,41.70
2019-02-06T09:01:55.741Z,41.50
2019-02-06T09:04:25.702Z,41.40
2019-02-06T09:06:55.149Z,41.20
2019-02-06T09:09:28.194Z,41.10
2019-02-06T09:11:59.152Z,41.20
2019-02-06T09:14:35.303Z,41.10
2019-02-06T09:17:04.398Z,41.20
2019-02-06T09:19:38.655Z,41.50
2019-02-06T09:25:01.305Z,41.90
2019-02-06T09:27:37.913Z,42.00
2019-02-06T09:30:09.915Z,42.20
2019-02-06T09:32:40.060Z,42.60
2019-02-06T09:35:09.931Z,42.90
2019-02-06T09:37:45.289Z,43.20
2019-02-06T09:40:16.385Z,43.60
2019-02-06T09:42:46.466Z,43.90
2019-02-06T09:45:24.215Z,44.10
2019-02-06T09:48:03.057Z,44.10
2019-02-06T09:50:33.611Z,44.10
2019-02-06T09:53:05.776Z,43.90
2019-02-06T09:55:46.280Z,43.80
2019-02-06T09:58:21.404Z,43.60
2019-02-06T10:00:57.960Z,43.40
2019-02-06T10:03:42.317Z,43.30
2019-02-06T10:06:11.967Z,43.10
2019-02-06T10:08:42.759Z,42.90
2019-02-06T10:11:13.750Z,42.80
2019-02-06T10:13:42.671Z,42.70
2019-02-06T10:16:11.543Z,42.50
2019-02-06T10:18:40.567Z,42.40
2019-02-06T10:21:11.327Z,42.20
2019-02-06T10:24:03.566Z,42.10
2019-02-06T10:26:34.857Z,42.00
2019-02-06T10:29:03.974Z,41.90
2019-02-06T10:31:34.890Z,42.40
2019-02-06T10:34:03.998Z,41.60
2019-02-06T10:36:34.593Z,41.60
2019-02-06T10:39:05.203Z,41.60
2019-02-06T10:41:43.976Z,41.60
2019-02-06T10:44:13.987Z,41.60
2019-02-06T10:46:43.983Z,41.60
2019-02-06T10:49:21.981Z,41.70
2019-02-06T10:57:15.583Z,41.30
2019-02-06T10:59:42.410Z,41.20
2019-02-06T11:02:13.246Z,41.10
2019-02-06T11:04:42.943Z,40.90
2019-02-06T11:07:16.116Z,40.80
2019-02-06T11:09:46.471Z,40.70
2019-02-06T11:12:17.155Z,40.50
2019-02-06T11:14:49.670Z,40.50
2019-02-06T11:17:20.971Z,40.30
2019-02-06T11:19:54.955Z,40.30
2019-02-06T11:22:41.285Z,40.20
2019-02-06T11:25:13.617Z,40.10
2019-02-06T11:27:49.859Z,40.10
2019-02-06T11:30:26.107Z,40.00
2019-02-06T11:32:58.019Z,39.90
2019-02-06T11:35:27.232Z,39.90
2019-02-06T11:37:57.935Z,39.80
2019-02-06T11:40:26.857Z,39.70
2019-02-06T11:42:56.023Z,39.70
2019-02-06T11:45:27.692Z,39.80
2019-02-06T11:47:58.088Z,39.80
2019-02-06T11:50:52.396Z,39.80
2019-02-06T11:53:27.043Z,39.90
2019-02-06T11:56:16.866Z,39.90
2019-02-06T11:58:48.080Z,39.90
2019-02-06T12:01:35.178Z,39.80
2019-02-06T12:04:28.538Z,39.70
2019-02-06T12:06:58.129Z,39.60
2019-02-06T12:09:27.132Z,39.60
2019-02-06T12:12:02.490Z,39.40
2019-02-06T12:14:31.435Z,39.30
2019-02-06T12:17:00.359Z,39.30
2019-02-06T12:19:38.419Z,39.20
2019-02-06T12:22:13.043Z,39.20
2019-02-06T12:24:52.494Z,39.10
2019-02-06T12:27:14.627Z,39.10
2019-02-06T12:30:06.659Z,38.90
2019-02-06T12:32:35.622Z,38.90
2019-02-06T12:35:07.370Z,38.80
2019-02-06T12:37:41.847Z,38.70
2019-02-06T12:40:21.545Z,38.60
2019-02-06T12:42:50.951Z,38.60
2019-02-06T12:45:20.075Z,38.50
2019-02-06T12:48:18.741Z,38.50
2019-02-06T12:50:47.978Z,38.40
2019-02-06T12:53:17.522Z,38.40
2019-02-06T12:55:46.545Z,38.30
2019-02-06T13:01:07.035Z,38.20
2019-02-06T13:03:43.888Z,38.30
2019-02-06T13:06:12.939Z,38.20
2019-02-06T13:08:42.109Z,38.30
2019-02-06T13:11:20.010Z,38.20
2019-02-06T13:13:51.259Z,38.30
2019-02-06T13:16:26.377Z,38.50
2019-02-06T13:18:55.662Z,38.60
2019-02-06T13:21:29.635Z,38.60
2019-02-06T13:24:00.608Z,38.70
2019-02-06T13:26:29.499Z,38.80
2019-02-06T13:28:58.729Z,38.90
2019-02-06T13:31:52.225Z,39.00
2019-02-06T13:34:28.637Z,39.10
2019-02-06T13:37:02.109Z,39.20
2019-02-06T13:39:31.549Z,39.20
2019-02-06T13:42:05.328Z,39.10
2019-02-06T13:44:32.764Z,39.00
2019-02-06T13:47:02.033Z,38.90
2019-02-06T13:49:31.310Z,38.80
2019-02-06T13:52:00.178Z,38.70
2019-02-06T13:54:33.409Z,38.60
2019-02-06T13:57:03.744Z,38.60
2019-02-06T13:59:34.450Z,38.50
2019-02-06T14:02:05.406Z,38.30
2019-02-06T14:04:36.179Z,38.00
2019-02-06T14:07:05.239Z,37.90
2019-02-06T14:09:54.826Z,38.00
2019-02-06T14:15:19.731Z,38.10
2019-02-06T14:17:59.115Z,38.10
2019-02-06T14:20:28.296Z,38.30
2019-02-06T14:23:20.041Z,38.40
2019-02-06T14:25:59.295Z,38.50
2019-02-06T14:29:02.023Z,38.50
2019-02-06T14:32:06.274Z,38.50
2019-02-06T14:35:05.274Z,38.80
2019-02-06T14:38:22.571Z,39.10
2019-02-06T14:41:23.708Z,39.20
2019-02-06T14:44:17.694Z,39.30
2019-02-06T14:47:03.290Z,39.50
2019-02-06T14:49:54.437Z,39.60
2019-02-06T14:52:58.684Z,39.80
2019-02-06T14:58:22.829Z,39.80
2019-02-06T15:05:16.813Z,39.80
2019-02-06T15:07:55.920Z,39.70
2019-02-06T15:10:59.199Z,39.60
2019-02-06T15:13:53.052Z,39.40
2019-02-06T15:17:03.562Z,39.20
2019-02-06T15:19:46.845Z,38.60
2019-02-06T15:23:08.733Z,38.40
2019-02-06T15:26:08.000Z,38.30
2019-02-06T15:29:17.755Z,38.20
2019-02-06T15:32:46.891Z,38.20
2019-02-06T15:36:07.954Z,38.20
2019-02-06T15:39:37.431Z,38.40
2019-02-06T15:42:43.654Z,38.50
2019-02-06T15:45:41.774Z,38.70
2019-02-06T15:48:36.108Z,38.80
2019-02-06T15:51:46.421Z,38.80
2019-02-06T15:54:57.770Z,38.90
2019-02-06T15:58:14.575Z,39.00
2019-02-06T16:01:17.883Z,39.20
2019-02-06T16:04:58.542Z,39.30
2019-02-06T16:08:11.783Z,39.50
2019-02-06T16:11:26.321Z,39.70
2019-02-06T16:17:22.826Z,40.00
2019-02-06T16:20:25.099Z,39.90
2019-02-06T16:23:42.525Z,39.70
2019-02-06T16:27:02.638Z,39.60
2019-02-06T16:30:01.272Z,39.40
2019-02-06T16:33:14.351Z,39.20
2019-02-06T16:36:44.370Z,39.10
2019-02-06T16:39:45.223Z,38.90
2019-02-06T16:42:42.974Z,38.80
2019-02-06T16:46:00.528Z,38.80
2019-02-06T16:48:54.648Z,38.90
2019-02-06T16:51:51.475Z,39.00
2019-02-06T16:55:07.533Z,39.10
2019-02-06T16:58:24.334Z,39.10
2019-02-06T17:01:42.491Z,39.30
2019-02-06T17:07:54.671Z,39.40
2019-02-06T17:11:09.174Z,39.60
2019-02-06T17:14:11.041Z,39.60
2019-02-06T17:17:10.624Z,39.70
2019-02-06T17:20:12.924Z,40.00
2019-02-06T17:23:39.931Z,40.00
2019-02-06T17:26:27.970Z,40.00
2019-02-06T17:29:07.487Z,39.90
2019-02-06T17:32:28.487Z,39.80
2019-02-06T17:35:16.881Z,39.80
2019-02-06T17:38:43.577Z,39.70
2019-02-06T17:41:45.186Z,39.60
2019-02-06T17:44:54.699Z,39.50
2019-02-06T17:48:14.347Z,39.60
2019-02-06T17:51:12.803Z,39.50
2019-02-06T17:53:49.708Z,39.70
2019-02-06T17:56:21.647Z,39.80
2019-02-06T17:58:51.153Z,40.00
2019-02-06T18:01:25.494Z,40.10
2019-02-06T18:04:20.496Z,40.10
2019-02-06T18:06:54.131Z,40.30
2019-02-06T18:09:37.803Z,40.30
2019-02-06T18:15:13.416Z,40.50
2019-02-06T18:17:42.438Z,40.70
2019-02-06T18:23:14.221Z,40.80
2019-02-06T18:28:35.921Z,41.20
2019-02-06T18:34:10.011Z,41.40
2019-02-06T18:37:06.107Z,41.40
2019-02-06T18:39:35.906Z,41.70
2019-02-06T18:42:36.964Z,42.00
2019-02-06T18:44:42.309Z,42.10
2019-02-06T18:47:12.759Z,42.30
2019-02-06T18:49:45.555Z,42.30
2019-02-06T18:55:54.321Z,42.20
2019-02-06T18:58:28.991Z,42.10
2019-02-06T19:00:59.971Z,42.20
2019-02-06T19:03:40.338Z,42.10
2019-02-06T19:06:18.907Z,42.10
2019-02-06T19:08:47.639Z,42.00
2019-02-06T19:11:21.029Z,42.00
2019-02-06T19:13:51.673Z,41.80
2019-02-06T19:17:21.727Z,41.80
2019-02-06T19:19:51.177Z,41.80
2019-02-06T19:22:20.506Z,41.90
2019-02-06T19:24:58.007Z,41.80
2019-02-06T19:27:27.567Z,41.80
2019-02-06T19:29:58.367Z,41.80
2019-02-06T19:32:29.091Z,41.70
2019-02-06T19:35:06.917Z,41.80
2019-02-06T19:37:40.109Z,41.80
2019-02-06T19:46:06.001Z,41.70
2019-02-06T19:51:31.512Z,41.70
2019-02-06T19:54:07.801Z,41.60
2019-02-06T19:59:37.151Z,41.70
2019-02-06T20:05:05.411Z,41.60
2019-02-06T20:07:39.627Z,41.60
2019-02-06T20:12:51.806Z,41.70
2019-02-06T20:15:21.514Z,41.70
2019-02-06T20:17:54.380Z,41.70
2019-02-06T20:20:25.331Z,41.90
2019-02-06T20:22:54.550Z,41.90
2019-02-06T20:25:34.006Z,42.00
2019-02-06T20:28:03.266Z,42.00
2019-02-06T20:30:34.849Z,42.20
2019-02-06T20:33:11.185Z,42.50
2019-02-06T20:35:46.528Z,42.80
2019-02-06T20:38:17.414Z,42.90
2019-02-06T20:41:02.776Z,43.00
2019-02-06T20:43:41.520Z,43.10
2019-02-06T20:46:12.771Z,43.00
2019-02-06T20:48:46.627Z,43.00
2019-02-06T20:51:30.205Z,43.00
2019-02-06T20:56:42.522Z,43.00
2019-02-06T21:02:01.284Z,43.10
2019-02-06T21:04:37.013Z,43.30
2019-02-06T21:07:07.994Z,43.50
2019-02-06T21:09:41.700Z,43.60
2019-02-06T21:12:15.176Z,43.60
2019-02-06T21:14:46.654Z,43.70
2019-02-06T21:17:16.139Z,43.80
2019-02-06T21:19:52.681Z,44.00
2019-02-06T21:25:01.982Z,44.60
2019-02-06T22:22:11.067Z,45.00
2019-02-06T22:24:40.352Z,44.90
2019-02-06T22:27:12.262Z,44.80
2019-02-06T22:29:48.708Z,44.80
2019-02-06T22:34:53.845Z,44.70
2019-02-06T22:37:23.049Z,44.80
2019-02-06T22:39:53.266Z,44.90
2019-02-06T23:12:42.940Z,44.60
2019-02-06T23:15:14.344Z,44.70
2019-02-06T23:17:43.306Z,44.60
2019-02-06T23:20:12.734Z,44.60
2019-02-06T23:22:42.578Z,44.50
2019-02-06T23:25:11.719Z,44.50
2019-02-06T23:27:44.461Z,44.50
2019-02-06T23:30:23.129Z,44.40
2019-02-06T23:32:53.021Z,44.40
2019-02-06T23:39:10.128Z,44.40
2019-02-06T23:44:29.402Z,44.40
2019-02-06T23:47:00.746Z,44.40
2019-02-06T23:52:08.868Z,44.20
2019-02-06T23:54:40.405Z,44.20
2019-02-06T23:57:10.850Z,44.20
2019-02-06T23:59:39.937Z,44.20
